Terminal Aerodrome Forecast
Issued by NWS Twin Cities, MN

Home | Current Version | Previous Version | Text Only | Print | Product List | Glossary Off
Versions: 1 2 3 4 5 6 7 8 9 10 11 12 13 14 15 16 17 18 19 20 21 22 23 24 25 26 27 28 29 30

000
FTUS43 KMPX 221100
TAFMSP
TAF
KMSP 221139Z 2212/2318 20008KT 4SM BR OVC008
     FM222000 18008KT P6SM OVC010
     FM230200 16008KT 3SM BR OVC005
     FM230600 17007KT 2SM BR OVC003
      TEMPO 2308/2312 1/2SM FG VV002
     FM231400 21008KT 3SM BR OVC006=

USA.gov is the U.S. government's official web portal to all federal, state and local government web resources and services.